createdAt,value
2019-01-14T00:00:48.101Z,38.27
2019-01-14T00:01:48.064Z,37.66
2019-01-14T00:02:48.055Z,38.07
2019-01-14T00:03:48.035Z,37.96
2019-01-14T00:04:48.027Z,37.45
2019-01-14T00:05:48.023Z,37.46
2019-01-14T00:06:48.019Z,37.37
2019-01-14T00:07:48.009Z,37.46
2019-01-14T00:08:47.995Z,38.07
2019-01-14T00:09:47.999Z,37.66
2019-01-14T00:10:47.982Z,37.66
2019-01-14T00:11:47.955Z,37.77
2019-01-14T00:12:47.954Z,37.87
2019-01-14T00:13:47.943Z,37.66
2019-01-14T00:14:47.918Z,37.87
2019-01-14T00:15:47.893Z,37.46
2019-01-14T00:16:47.899Z,37.16
2019-01-14T00:17:47.884Z,37.37
2019-01-14T00:18:47.863Z,37.37
2019-01-14T00:19:47.856Z,37.46
2019-01-14T00:20:47.879Z,37.37
2019-01-14T00:21:47.834Z,37.16
2019-01-14T00:22:47.842Z,38.07
2019-01-14T00:23:47.829Z,37.57
2019-01-14T00:24:47.847Z,37.57
2019-01-14T00:25:47.817Z,37.79
2019-01-14T00:26:47.838Z,37.79
2019-01-14T00:27:47.785Z,37.57
2019-01-14T00:28:47.789Z,37.46
2019-01-14T00:29:47.765Z,37.16
2019-01-14T00:30:47.747Z,37.07
2019-01-14T00:31:47.735Z,36.66
2019-01-14T00:32:47.752Z,37.07
2019-01-14T00:33:47.713Z,37.16
2019-01-14T00:34:47.775Z,37.07
2019-01-14T00:35:47.773Z,36.96
2019-01-14T00:36:47.715Z,37.57
2019-01-14T00:37:47.701Z,37.37
2019-01-14T00:38:47.669Z,37.27
2019-01-14T00:39:47.656Z,37.57
2019-01-14T00:40:47.642Z,37.37
2019-01-14T00:41:47.643Z,37.46
2019-01-14T00:42:47.633Z,37.37
2019-01-14T00:43:47.640Z,37.57
2019-01-14T00:44:47.607Z,37.45
2019-01-14T00:45:47.620Z,37.46
2019-01-14T00:46:47.693Z,37.37
2019-01-14T00:47:47.593Z,37.16
2019-01-14T00:48:47.578Z,37.07
2019-01-14T00:49:47.549Z,36.35
2019-01-14T00:50:47.529Z,36.94
2019-01-14T00:51:47.537Z,36.94
2019-01-14T00:52:47.534Z,37.15
2019-01-14T00:53:47.522Z,36.85
2019-01-14T00:54:47.526Z,37.15
2019-01-14T00:55:47.500Z,36.66
2019-01-14T00:56:47.477Z,36.94
2019-01-14T00:57:47.471Z,36.75
2019-01-14T00:58:47.477Z,36.94
2019-01-14T00:59:47.466Z,36.87
2019-01-14T01:00:47.447Z,36.55
2019-01-14T01:01:47.420Z,36.55
2019-01-14T01:02:47.441Z,36.75
2019-01-14T01:03:47.404Z,36.44
2019-01-14T01:04:47.399Z,37.15
2019-01-14T01:05:47.400Z,36.44
2019-01-14T01:06:47.398Z,36.87
2019-01-14T01:07:47.363Z,36.75
2019-01-14T01:08:47.385Z,36.75
2019-01-14T01:09:47.344Z,36.65
2019-01-14T01:10:47.334Z,36.75
2019-01-14T01:11:47.340Z,36.65
2019-01-14T01:12:47.311Z,36.87
2019-01-14T01:13:47.308Z,36.55
2019-01-14T01:14:47.291Z,36.75
2019-01-14T01:15:47.279Z,36.55
2019-01-14T01:16:47.286Z,36.55
2019-01-14T01:17:47.262Z,36.94
2019-01-14T01:18:47.248Z,37.15
2019-01-14T01:19:47.286Z,36.94
2019-01-14T01:20:47.228Z,36.94
2019-01-14T01:21:47.226Z,36.94
2019-01-14T01:22:47.218Z,36.85
2019-01-14T01:23:47.222Z,36.35
2019-01-14T01:24:47.225Z,36.35
2019-01-14T01:25:47.174Z,35.94
2019-01-14T01:26:47.156Z,36.15
2019-01-14T01:27:47.155Z,36.25
2019-01-14T01:28:47.152Z,35.85
2019-01-14T01:29:47.169Z,36.44
2019-01-14T01:30:47.122Z,36.44
2019-01-14T01:31:47.112Z,36.94
2019-01-14T01:32:47.126Z,36.94
2019-01-14T01:33:47.131Z,36.15
2019-01-14T01:34:47.083Z,36.94
2019-01-14T01:35:47.097Z,36.35
2019-01-14T01:36:47.045Z,36.35
2019-01-14T01:37:47.064Z,36.35
2019-01-14T01:38:47.037Z,36.05
2019-01-14T01:39:47.025Z,36.05
2019-01-14T01:40:47.078Z,35.85
2019-01-14T01:41:46.998Z,36.05
2019-01-14T01:42:46.993Z,36.35
2019-01-14T01:43:47.717Z,36.05
2019-01-14T01:44:47.011Z,36.05
2019-01-14T01:45:46.962Z,36.25
2019-01-14T01:46:46.969Z,36.87
2019-01-14T01:47:46.924Z,36.07
2019-01-14T01:48:46.935Z,36.57
2019-01-14T01:49:46.930Z,36.15
2019-01-14T01:50:46.906Z,36.35
2019-01-14T01:51:46.901Z,36.35
2019-01-14T01:52:46.919Z,36.25
2019-01-14T01:53:46.873Z,35.55
2019-01-14T01:54:46.854Z,36.05
2019-01-14T01:55:46.850Z,35.55
2019-01-14T01:56:46.868Z,35.55
2019-01-14T01:57:46.857Z,35.44
2019-01-14T01:58:46.860Z,35.55
2019-01-14T01:59:46.810Z,35.75
2019-01-14T02:00:46.808Z,36.44
2019-01-14T02:01:46.789Z,35.55
2019-01-14T02:02:46.799Z,36.05
2019-01-14T02:03:46.790Z,36.16
2019-01-14T02:04:46.776Z,36.16
2019-01-14T02:05:46.740Z,36.05
2019-01-14T02:06:46.730Z,35.94
2019-01-14T02:07:46.712Z,36.46
2019-01-14T02:08:46.726Z,35.75
2019-01-14T02:09:46.732Z,35.75
2019-01-14T02:10:46.724Z,35.85
2019-01-14T02:11:46.675Z,35.55
2019-01-14T02:12:46.685Z,35.75
2019-01-14T02:13:46.656Z,35.64
2019-01-14T02:14:46.672Z,35.75
2019-01-14T02:15:46.644Z,35.85
2019-01-14T02:16:46.624Z,35.55
2019-01-14T02:17:46.617Z,35.64
2019-01-14T02:18:46.590Z,35.85
2019-01-14T02:19:46.594Z,35.94
2019-01-14T02:20:46.598Z,35.85
2019-01-14T02:21:46.574Z,35.94
2019-01-14T02:22:46.557Z,35.55
2019-01-14T02:23:46.557Z,35.85
2019-01-14T02:24:46.546Z,35.94
2019-01-14T02:25:46.535Z,35.64
2019-01-14T02:26:46.522Z,35.64
2019-01-14T02:27:46.504Z,35.83
2019-01-14T02:28:46.490Z,35.55
2019-01-14T02:29:46.480Z,35.75
2019-01-14T02:30:46.479Z,35.75
2019-01-14T02:31:46.476Z,35.75
2019-01-14T02:32:46.463Z,35.94
2019-01-14T02:33:46.443Z,35.64
2019-01-14T02:34:46.429Z,35.96
2019-01-14T02:35:46.432Z,35.55
2019-01-14T02:36:48.556Z,35.94
2019-01-14T02:37:46.430Z,35.86
2019-01-14T02:38:46.405Z,35.66
2019-01-14T02:39:46.379Z,35.86
2019-01-14T02:40:46.367Z,35.96
2019-01-14T02:41:46.376Z,35.44
2019-01-14T02:42:46.350Z,35.64
2019-01-14T02:43:46.350Z,35.75
2019-01-14T02:44:46.350Z,35.66
2019-01-14T02:45:46.328Z,35.94
2019-01-14T02:46:46.305Z,35.64
2019-01-14T02:47:46.309Z,35.85
2019-01-14T02:48:46.285Z,35.75
2019-01-14T02:49:46.295Z,35.75
2019-01-14T02:50:46.263Z,35.64
2019-01-14T02:51:46.254Z,35.75
2019-01-14T02:52:46.242Z,36.07
2019-01-14T02:53:46.236Z,35.56
2019-01-14T02:54:46.231Z,35.76
2019-01-14T02:55:46.235Z,35.75
2019-01-14T02:56:46.195Z,35.55
2019-01-14T02:57:46.199Z,35.55
2019-01-14T02:58:46.179Z,35.85
2019-01-14T02:59:46.210Z,35.75
2019-01-14T03:00:46.176Z,35.66
2019-01-14T03:01:46.178Z,35.75
2019-01-14T03:02:46.136Z,35.66
2019-01-14T03:03:46.132Z,35.76
2019-01-14T03:04:46.144Z,35.75
2019-01-14T03:05:46.735Z,35.96
2019-01-14T03:06:46.099Z,35.76
2019-01-14T03:07:46.118Z,35.56
2019-01-14T03:08:46.072Z,35.96
2019-01-14T03:09:46.069Z,35.76
2019-01-14T03:10:46.051Z,35.86
2019-01-14T03:11:46.073Z,35.75
2019-01-14T03:12:46.041Z,35.64
2019-01-14T03:13:46.013Z,35.35
2019-01-14T03:14:46.014Z,35.05
2019-01-14T03:15:46.007Z,35.55
2019-01-14T03:16:46.004Z,35.05
2019-01-14T03:17:45.992Z,35.05
2019-01-14T03:18:45.994Z,35.35
2019-01-14T03:19:46.020Z,34.84
2019-01-14T03:20:45.943Z,35.06
2019-01-14T03:21:45.951Z,35.85
2019-01-14T03:22:45.940Z,35.96
2019-01-14T03:23:45.928Z,36.26
2019-01-14T03:24:45.925Z,35.66
2019-01-14T03:25:45.929Z,35.75
2019-01-14T03:26:45.883Z,35.64
2019-01-14T03:27:45.885Z,34.84
2019-01-14T03:28:45.878Z,35.25
2019-01-14T03:29:45.871Z,34.94
2019-01-14T03:30:45.861Z,34.94
2019-01-14T03:31:45.838Z,35.25
2019-01-14T03:32:45.842Z,35.64
2019-01-14T03:33:45.830Z,35.35
2019-01-14T03:34:45.798Z,35.35
2019-01-14T03:35:45.800Z,35.35
2019-01-14T03:36:45.812Z,35.75
2019-01-14T03:37:45.888Z,35.35
2019-01-14T03:38:45.798Z,35.06
2019-01-14T03:39:45.770Z,35.46
2019-01-14T03:40:45.750Z,34.84
2019-01-14T03:41:45.747Z,34.86
2019-01-14T03:42:45.762Z,35.46
2019-01-14T03:43:45.776Z,34.94
2019-01-14T03:44:45.719Z,35.56
2019-01-14T03:45:45.711Z,35.25
2019-01-14T03:46:45.692Z,35.55
2019-01-14T03:47:45.688Z,35.26
2019-01-14T03:48:45.669Z,35.44
2019-01-14T03:49:45.758Z,34.86
2019-01-14T03:50:45.636Z,35.16
2019-01-14T03:51:45.632Z,35.56
2019-01-14T03:52:45.627Z,35.56
2019-01-14T03:53:45.643Z,35.86
2019-01-14T03:54:45.636Z,35.66
2019-01-14T03:55:45.587Z,35.96
2019-01-14T03:56:45.605Z,35.46
2019-01-14T03:57:45.558Z,35.46
2019-01-14T03:58:45.557Z,35.06
2019-01-14T03:59:45.539Z,34.76
2019-01-14T04:00:45.525Z,35.26
2019-01-14T04:01:45.524Z,35.55
2019-01-14T04:02:45.589Z,35.06
2019-01-14T04:03:45.531Z,35.25
2019-01-14T04:04:45.491Z,34.55
2019-01-14T04:05:45.475Z,34.55
2019-01-14T04:06:45.465Z,34.55
2019-01-14T04:07:45.461Z,34.55
2019-01-14T04:08:45.503Z,34.84
2019-01-14T04:09:45.429Z,34.55
2019-01-14T04:10:45.444Z,34.84
2019-01-14T04:11:45.447Z,35.05
2019-01-14T04:12:45.401Z,34.64
2019-01-14T04:13:45.404Z,34.94
2019-01-14T04:14:45.395Z,34.84
2019-01-14T04:15:45.397Z,34.64
2019-01-14T04:16:45.392Z,34.44
2019-01-14T04:17:45.382Z,34.84
2019-01-14T04:18:45.354Z,35.05
2019-01-14T04:19:45.351Z,34.64
2019-01-14T04:20:45.366Z,34.64
2019-01-14T04:21:45.322Z,35.05
2019-01-14T04:22:45.348Z,34.74
2019-01-14T04:23:45.322Z,34.34
2019-01-14T04:24:45.286Z,35.05
2019-01-14T04:25:45.287Z,35.26
2019-01-14T04:26:45.262Z,34.56
2019-01-14T04:27:45.262Z,34.44
2019-01-14T04:28:45.270Z,34.94
2019-01-14T04:29:45.251Z,35.05
2019-01-14T04:30:45.228Z,34.84
2019-01-14T04:31:45.216Z,35.14
2019-01-14T04:32:45.202Z,35.25
2019-01-14T04:33:45.200Z,33.94
2019-01-14T04:34:45.212Z,34.05
2019-01-14T04:35:45.160Z,34.24
2019-01-14T04:36:45.157Z,34.05
2019-01-14T04:37:45.158Z,35.44
2019-01-14T04:38:45.139Z,34.24
2019-01-14T04:39:45.134Z,33.94
2019-01-14T04:40:45.115Z,34.64
2019-01-14T04:41:45.120Z,34.05
2019-01-14T04:42:45.092Z,35.25
2019-01-14T04:43:45.072Z,35.25
2019-01-14T04:44:45.074Z,35.06
2019-01-14T04:45:45.085Z,34.84
2019-01-14T04:46:45.063Z,35.44
2019-01-14T04:47:45.060Z,33.94
2019-01-14T04:48:45.087Z,34.34
2019-01-14T04:49:45.013Z,35.44
2019-01-14T04:50:45.016Z,33.94
2019-01-14T04:51:45.009Z,34.24
2019-01-14T04:52:45.011Z,34.34
2019-01-14T04:53:44.971Z,34.34
2019-01-14T04:54:44.969Z,34.55
2019-01-14T04:55:44.998Z,34.55
2019-01-14T04:56:44.966Z,34.24
2019-01-14T04:57:44.965Z,33.74
2019-01-14T04:58:44.939Z,33.64
2019-01-14T04:59:44.921Z,33.74
2019-01-14T05:00:44.947Z,34.05
2019-01-14T05:01:44.901Z,34.64
2019-01-14T05:02:44.907Z,33.64
2019-01-14T05:03:44.897Z,33.94
2019-01-14T05:04:44.867Z,34.55
2019-01-14T05:05:44.875Z,34.34
2019-01-14T05:06:44.836Z,34.64
2019-01-14T05:07:44.821Z,34.24
2019-01-14T05:08:44.817Z,33.64
2019-01-14T05:09:44.811Z,33.93
2019-01-14T05:10:44.809Z,34.21
2019-01-14T05:11:44.807Z,34.01
2019-01-14T05:12:44.783Z,32.41
2019-01-14T05:13:44.787Z,32.79
2019-01-14T05:14:44.773Z,32.79
2019-01-14T05:15:44.800Z,32.48
2019-01-14T05:16:44.760Z,32.46
2019-01-14T05:17:44.729Z,32.17
2019-01-14T05:18:44.723Z,31.55
2019-01-14T05:19:44.718Z,31.67
2019-01-14T05:20:44.719Z,31.65
2019-01-14T05:21:45.308Z,32.14
2019-01-14T05:22:44.717Z,31.43
2019-01-14T05:23:44.669Z,30.83
2019-01-14T05:24:44.712Z,30.92
2019-01-14T05:25:44.643Z,31.12
2019-01-14T05:26:44.636Z,30.52
2019-01-14T05:27:44.653Z,31.02
2019-01-14T05:28:44.610Z,31.12
2019-01-14T05:29:44.600Z,31.32
2019-01-14T05:30:44.594Z,30.92
2019-01-14T05:31:44.576Z,30.92
2019-01-14T05:32:44.562Z,30.91
2019-01-14T05:33:44.590Z,30.91
2019-01-14T05:34:44.535Z,31.01
2019-01-14T05:35:44.532Z,30.80
2019-01-14T05:36:44.535Z,30.71
2019-01-14T05:37:44.511Z,30.11
2019-01-14T05:38:44.510Z,30.11
2019-01-14T05:39:44.486Z,30.59
2019-01-14T05:40:44.524Z,30.69
2019-01-14T05:41:44.476Z,30.89
2019-01-14T05:42:44.473Z,29.10
2019-01-14T05:43:44.454Z,30.40
2019-01-14T05:44:44.439Z,29.99
2019-01-14T05:45:44.463Z,29.50
2019-01-14T05:46:44.425Z,30.29
2019-01-14T05:47:44.403Z,29.60
2019-01-14T05:48:44.394Z,29.68
2019-01-14T05:49:44.379Z,29.68
2019-01-14T05:50:44.390Z,29.48
2019-01-14T05:51:44.401Z,29.39
2019-01-14T05:52:44.348Z,29.38
2019-01-14T05:53:44.381Z,30.10
2019-01-14T05:54:44.342Z,30.10
2019-01-14T05:55:44.371Z,29.99
2019-01-14T05:56:44.334Z,29.90
2019-01-14T05:57:44.307Z,29.78
2019-01-14T05:58:44.288Z,29.99
2019-01-14T05:59:44.779Z,29.88
2019-01-14T06:00:44.272Z,29.90
2019-01-14T06:01:44.324Z,29.98
2019-01-14T06:02:44.261Z,29.98
2019-01-14T06:03:44.233Z,29.98
2019-01-14T06:04:44.232Z,29.68
2019-01-14T06:05:44.229Z,29.90
2019-01-14T06:06:44.211Z,30.08
2019-01-14T06:07:45.057Z,29.48
2019-01-14T06:08:44.209Z,28.78
2019-01-14T06:09:44.187Z,28.78
2019-01-14T06:10:44.176Z,29.08
2019-01-14T06:11:44.227Z,29.58
2019-01-14T06:12:44.196Z,29.58
2019-01-14T06:13:44.182Z,29.58
2019-01-14T06:14:44.153Z,29.78
2019-01-14T06:15:44.126Z,29.58
2019-01-14T06:16:44.117Z,29.78
2019-01-14T06:17:44.106Z,29.58
2019-01-14T06:18:44.088Z,29.58
2019-01-14T06:19:44.091Z,28.99
2019-01-14T06:20:44.153Z,29.48
2019-01-14T06:21:44.174Z,29.38
2019-01-14T06:22:44.078Z,29.08
2019-01-14T06:23:44.056Z,29.48
2019-01-14T06:24:44.042Z,29.28
2019-01-14T06:25:44.042Z,29.08
2019-01-14T06:26:44.066Z,29.38
2019-01-14T06:27:44.013Z,28.88
2019-01-14T06:28:44.014Z,29.98
2019-01-14T06:29:44.018Z,29.78
2019-01-14T06:30:43.967Z,29.88
2019-01-14T06:31:43.966Z,29.28
2019-01-14T06:32:43.959Z,28.78
2019-01-14T06:33:43.950Z,29.68
2019-01-14T06:34:43.990Z,29.08
2019-01-14T06:35:43.909Z,29.78
2019-01-14T06:36:43.908Z,29.80
2019-01-14T06:37:43.912Z,29.58
2019-01-14T06:38:43.881Z,29.78
2019-01-14T06:39:43.906Z,29.18
2019-01-14T06:40:43.928Z,29.69
2019-01-14T06:41:43.907Z,28.78
2019-01-14T06:42:43.843Z,29.58
2019-01-14T06:43:43.846Z,29.98
2019-01-14T06:44:43.853Z,30.28
2019-01-14T06:45:43.824Z,29.78
2019-01-14T06:46:43.811Z,29.98
2019-01-14T06:47:43.790Z,29.69
2019-01-14T06:48:43.768Z,30.11
2019-01-14T06:49:43.774Z,30.11
2019-01-14T06:50:43.750Z,29.81
2019-01-14T06:51:43.778Z,29.60
2019-01-14T06:52:43.758Z,29.50
2019-01-14T06:53:43.731Z,29.90
2019-01-14T06:54:43.726Z,29.90
2019-01-14T06:55:43.756Z,29.99
2019-01-14T06:56:43.698Z,29.60
2019-01-14T06:57:43.720Z,29.99
2019-01-14T06:58:43.670Z,29.31
2019-01-14T06:59:43.661Z,30.51
2019-01-14T07:00:43.694Z,30.91
2019-01-14T07:01:43.653Z,30.31
2019-01-14T07:02:43.654Z,30.91
2019-01-14T07:03:43.643Z,29.61
2019-01-14T07:04:43.708Z,30.41
2019-01-14T07:05:43.603Z,29.51
2019-01-14T07:06:43.596Z,30.40
2019-01-14T07:07:43.595Z,29.91
2019-01-14T07:08:43.577Z,30.42
2019-01-14T07:09:43.581Z,30.92
2019-01-14T07:10:43.590Z,30.72
2019-01-14T07:11:43.585Z,30.52
2019-01-14T07:12:43.543Z,30.72
2019-01-14T07:13:43.544Z,30.61
2019-01-14T07:14:43.511Z,30.80
2019-01-14T07:15:43.503Z,30.91
2019-01-14T07:16:43.478Z,30.10
2019-01-14T07:17:43.479Z,29.39
2019-01-14T07:18:43.480Z,30.59
2019-01-14T07:19:43.475Z,29.90
2019-01-14T07:20:43.465Z,29.99
2019-01-14T07:21:43.450Z,29.90
2019-01-14T07:22:43.460Z,29.80
2019-01-14T07:23:43.409Z,29.81
2019-01-14T07:24:43.433Z,29.91
2019-01-14T07:25:43.401Z,30.91
2019-01-14T07:26:43.391Z,30.71
2019-01-14T07:27:43.376Z,30.79
2019-01-14T07:28:43.357Z,29.69
2019-01-14T07:29:43.346Z,29.50
2019-01-14T07:30:43.358Z,29.58
2019-01-14T07:31:43.334Z,29.38
2019-01-14T07:32:43.328Z,29.50
2019-01-14T07:33:43.302Z,29.98
2019-01-14T07:34:43.316Z,29.68
2019-01-14T07:35:43.286Z,29.58
2019-01-14T07:36:43.291Z,29.18
2019-01-14T07:37:43.293Z,29.78
2019-01-14T07:38:43.312Z,30.08
2019-01-14T07:39:43.285Z,29.67
2019-01-14T07:40:43.246Z,29.07
2019-01-14T07:41:43.233Z,28.87
2019-01-14T07:42:43.217Z,29.47
2019-01-14T07:43:43.228Z,29.47
2019-01-14T07:44:43.208Z,29.47
2019-01-14T07:45:43.227Z,29.98
2019-01-14T07:46:43.190Z,29.58
2019-01-14T07:47:43.162Z,30.08
2019-01-14T07:48:43.180Z,29.88
2019-01-14T07:49:43.148Z,29.90
2019-01-14T07:50:43.149Z,29.39
2019-01-14T07:51:43.133Z,30.10
2019-01-14T07:52:43.122Z,29.90
2019-01-14T07:53:43.114Z,30.10
2019-01-14T07:54:43.176Z,29.68
2019-01-14T07:55:43.108Z,29.60
2019-01-14T07:56:43.114Z,29.69
2019-01-14T07:57:43.098Z,29.90
2019-01-14T07:58:43.122Z,30.51
2019-01-14T07:59:43.030Z,30.49
2019-01-14T08:00:43.134Z,29.80
2019-01-14T08:01:43.003Z,30.40
2019-01-14T08:02:43.098Z,30.40
2019-01-14T08:03:43.004Z,30.19
2019-01-14T08:04:43.002Z,29.78
2019-01-14T08:05:42.970Z,30.19
2019-01-14T08:06:42.956Z,29.99
2019-01-14T08:07:42.946Z,29.50
2019-01-14T08:08:43.005Z,29.98
2019-01-14T08:09:42.989Z,30.10
2019-01-14T08:10:42.930Z,30.08
2019-01-14T08:11:42.959Z,30.59
2019-01-14T08:12:42.928Z,29.00
2019-01-14T08:13:42.951Z,29.21
2019-01-14T08:14:42.888Z,30.41
2019-01-14T08:15:42.898Z,30.02
2019-01-14T08:16:42.874Z,31.02
2019-01-14T08:17:42.897Z,30.72
2019-01-14T08:18:42.862Z,29.82
2019-01-14T08:19:42.833Z,30.72
2019-01-14T08:20:42.819Z,30.52
2019-01-14T08:21:42.810Z,30.92
2019-01-14T08:22:43.345Z,30.61
2019-01-14T08:23:42.800Z,29.99
2019-01-14T08:24:42.784Z,29.61
2019-01-14T08:25:42.759Z,31.02
2019-01-14T08:26:42.806Z,30.80
2019-01-14T08:27:42.758Z,31.32
2019-01-14T08:28:42.741Z,30.82
2019-01-14T08:29:42.775Z,30.72
2019-01-14T08:30:42.772Z,29.61
2019-01-14T08:31:42.693Z,30.42
2019-01-14T08:32:42.691Z,30.52
2019-01-14T08:33:42.693Z,30.80
2019-01-14T08:34:42.688Z,30.99
2019-01-14T08:35:42.705Z,30.40
2019-01-14T08:36:42.652Z,30.40
2019-01-14T08:37:42.661Z,29.68
2019-01-14T08:38:42.634Z,29.48
2019-01-14T08:39:42.628Z,29.97
2019-01-14T08:40:43.361Z,29.97
2019-01-14T08:41:42.593Z,29.77
2019-01-14T08:42:42.605Z,29.47
2019-01-14T08:43:42.583Z,29.57
2019-01-14T08:44:42.571Z,29.86
2019-01-14T08:45:42.549Z,29.67
2019-01-14T08:46:42.561Z,29.95
2019-01-14T08:47:42.538Z,29.75
2019-01-14T08:48:48.647Z,29.85
2019-01-14T08:49:43.519Z,29.85
2019-01-14T08:50:42.524Z,29.95
2019-01-14T08:51:42.508Z,29.85
2019-01-14T08:52:42.518Z,29.25
2019-01-14T08:53:42.497Z,29.75
2019-01-14T08:54:42.539Z,29.75
2019-01-14T08:55:42.532Z,29.57
2019-01-14T08:56:42.477Z,29.55
2019-01-14T08:57:42.454Z,30.05
2019-01-14T08:58:42.448Z,29.65
2019-01-14T08:59:42.509Z,29.75
2019-01-14T09:00:42.395Z,29.85
2019-01-14T09:01:42.400Z,30.05
2019-01-14T09:02:42.394Z,28.87
2019-01-14T09:03:42.373Z,28.67
2019-01-14T09:04:42.443Z,29.97
2019-01-14T09:05:42.354Z,29.86
2019-01-14T09:06:42.362Z,29.67
2019-01-14T09:07:42.323Z,29.18
2019-01-14T09:08:42.350Z,30.18
2019-01-14T09:09:42.318Z,29.90
2019-01-14T09:10:42.311Z,29.50
2019-01-14T09:11:42.301Z,30.69
2019-01-14T09:12:42.302Z,30.41
2019-01-14T09:13:42.273Z,30.49
2019-01-14T09:14:42.286Z,29.48
2019-01-14T09:15:42.234Z,30.18
2019-01-14T09:16:42.283Z,30.48
2019-01-14T09:17:42.209Z,29.57
2019-01-14T09:18:44.708Z,29.57
2019-01-14T09:19:42.288Z,29.48
2019-01-14T09:20:42.177Z,29.60
2019-01-14T09:21:42.214Z,30.98
2019-01-14T09:22:42.171Z,30.58
2019-01-14T09:23:42.184Z,30.48
2019-01-14T09:24:42.188Z,29.99
2019-01-14T09:25:42.142Z,30.88
2019-01-14T09:26:42.167Z,30.48
2019-01-14T09:27:42.109Z,30.27
2019-01-14T09:28:42.151Z,29.86
2019-01-14T09:29:42.082Z,29.77
2019-01-14T09:30:42.081Z,29.58
2019-01-14T09:31:42.096Z,29.39
2019-01-14T09:32:43.729Z,30.69
2019-01-14T09:33:42.054Z,30.69
2019-01-14T09:34:42.052Z,30.69
2019-01-14T09:35:42.035Z,30.19
2019-01-14T09:36:42.014Z,30.28
2019-01-14T09:37:42.012Z,30.99
2019-01-14T09:38:42.011Z,30.49
2019-01-14T09:39:41.986Z,30.59
2019-01-14T09:40:41.970Z,30.38
2019-01-14T09:41:42.007Z,29.48
2019-01-14T09:42:41.953Z,29.86
2019-01-14T09:43:41.947Z,29.86
2019-01-14T09:44:41.943Z,28.97
2019-01-14T09:45:41.931Z,29.57
2019-01-14T09:46:41.969Z,30.58
2019-01-14T09:47:41.900Z,30.38
2019-01-14T09:48:41.902Z,29.48
2019-01-14T09:49:45.627Z,30.48
2019-01-14T09:50:41.880Z,29.28
2019-01-14T09:51:41.882Z,30.48
2019-01-14T09:52:41.889Z,29.58
2019-01-14T09:53:41.840Z,30.79
2019-01-14T09:54:41.842Z,30.89
2019-01-14T09:55:41.822Z,30.79
2019-01-14T09:56:41.908Z,30.18
2019-01-14T09:57:41.854Z,30.48
2019-01-14T09:58:41.816Z,26.81
2019-01-14T09:59:41.779Z,26.40
2019-01-14T10:00:41.774Z,26.42
2019-01-14T10:01:41.778Z,28.22
2019-01-14T10:02:41.782Z,28.61
2019-01-14T10:03:41.736Z,28.71
2019-01-14T10:04:41.723Z,30.22
2019-01-14T10:05:41.766Z,29.52
2019-01-14T10:06:41.736Z,29.22
2019-01-14T10:07:41.702Z,29.63
2019-01-14T10:08:43.239Z,30.41
2019-01-14T10:09:41.744Z,30.69
2019-01-14T10:10:41.693Z,29.88
2019-01-14T10:11:41.652Z,29.90
2019-01-14T10:12:41.670Z,29.58
2019-01-14T10:13:41.645Z,29.86
2019-01-14T10:14:41.619Z,29.67
2019-01-14T10:15:41.599Z,30.07
2019-01-14T10:16:41.607Z,30.05
2019-01-14T10:17:41.583Z,29.77
2019-01-14T10:18:41.576Z,29.85
2019-01-14T10:19:41.621Z,30.36
2019-01-14T10:20:41.536Z,28.87
2019-01-14T10:21:41.538Z,30.05
2019-01-14T10:22:41.534Z,28.67
2019-01-14T10:23:41.526Z,29.77
2019-01-14T10:24:41.508Z,29.65
2019-01-14T10:25:41.488Z,28.08
2019-01-14T10:26:41.483Z,29.07
2019-01-14T10:27:41.481Z,30.07
2019-01-14T10:28:41.486Z,29.98
2019-01-14T10:29:41.470Z,28.99
2019-01-14T10:30:41.670Z,29.98
2019-01-14T10:31:41.459Z,30.08
2019-01-14T10:32:41.435Z,25.79
2019-01-14T10:33:41.431Z,26.81
2019-01-14T10:34:41.409Z,27.70
2019-01-14T10:35:41.450Z,28.71
2019-01-14T10:36:41.403Z,28.92
2019-01-14T10:37:41.368Z,29.81
2019-01-14T10:38:41.373Z,29.91
2019-01-14T10:39:41.366Z,29.90
2019-01-14T10:40:41.339Z,29.99
2019-01-14T10:41:41.347Z,29.99
2019-01-14T10:42:41.339Z,29.99
2019-01-14T10:43:41.309Z,29.90
2019-01-14T10:44:41.301Z,29.86
2019-01-14T10:45:41.646Z,29.97
2019-01-14T10:46:41.358Z,28.66
2019-01-14T10:47:41.388Z,29.35
2019-01-14T10:48:41.452Z,29.44
2019-01-14T10:49:41.302Z,28.94
2019-01-14T10:50:41.500Z,29.14
2019-01-14T10:51:41.918Z,28.66
2019-01-14T10:52:41.791Z,29.25
2019-01-14T10:53:41.262Z,28.94
2019-01-14T10:54:41.248Z,29.05
2019-01-14T10:55:41.183Z,29.16
2019-01-14T10:56:44.127Z,29.16
2019-01-14T10:57:41.200Z,28.76
2019-01-14T10:58:41.189Z,28.96
2019-01-14T10:59:41.150Z,29.25
2019-01-14T11:00:41.142Z,28.74
2019-01-14T11:01:41.121Z,29.14
2019-01-14T11:02:41.121Z,29.04
2019-01-14T11:03:41.144Z,28.96
2019-01-14T11:04:41.087Z,30.15
2019-01-14T11:05:41.070Z,29.85
2019-01-14T11:06:41.066Z,29.65
2019-01-14T11:07:41.046Z,28.26
2019-01-14T11:08:41.052Z,29.16
2019-01-14T11:09:44.617Z,29.97
2019-01-14T11:10:41.026Z,29.38
2019-01-14T11:11:41.016Z,29.68
2019-01-14T11:12:41.006Z,29.47
2019-01-14T11:13:40.985Z,29.86
2019-01-14T11:14:41.004Z,29.57
2019-01-14T11:15:41.122Z,28.96
2019-01-14T11:16:40.958Z,29.75
2019-01-14T11:17:40.956Z,28.74
2019-01-14T11:18:40.936Z,28.63
2019-01-14T11:19:40.924Z,29.03
2019-01-14T11:20:41.305Z,29.13
2019-01-14T11:21:40.908Z,29.03
2019-01-14T11:22:40.886Z,29.21
2019-01-14T11:23:40.873Z,28.91
2019-01-14T11:24:40.872Z,29.33
2019-01-14T11:25:40.867Z,29.31
2019-01-14T11:26:40.858Z,28.52
2019-01-14T11:27:40.855Z,29.00
2019-01-14T11:28:40.914Z,28.30
2019-01-14T11:29:40.824Z,28.20
2019-01-14T11:30:40.825Z,28.90
2019-01-14T11:31:40.799Z,28.72
2019-01-14T11:32:40.789Z,28.70
2019-01-14T11:33:40.782Z,28.81
2019-01-14T11:34:40.769Z,29.11
2019-01-14T11:35:40.757Z,29.11
2019-01-14T11:36:40.749Z,29.31
2019-01-14T11:37:40.743Z,29.02
2019-01-14T11:38:40.728Z,28.62
2019-01-14T11:39:40.716Z,28.81
2019-01-14T11:40:40.715Z,29.33
2019-01-14T11:41:40.706Z,28.83
2019-01-14T11:42:40.685Z,30.02
2019-01-14T11:43:40.705Z,29.93
2019-01-14T11:44:40.678Z,29.82
2019-01-14T11:45:40.671Z,29.14
2019-01-14T11:46:40.675Z,29.75
2019-01-14T11:47:40.642Z,30.27
2019-01-14T11:48:40.639Z,29.65
2019-01-14T11:49:40.635Z,29.47
2019-01-14T11:50:40.615Z,29.95
2019-01-14T11:51:40.597Z,29.75
2019-01-14T11:52:40.593Z,29.16
2019-01-14T11:53:40.573Z,29.55
2019-01-14T11:54:40.569Z,29.46
2019-01-14T11:55:40.598Z,29.84
2019-01-14T11:56:40.546Z,29.03
2019-01-14T11:57:40.545Z,29.72
2019-01-14T11:58:40.551Z,30.12
2019-01-14T11:59:40.534Z,30.02
2019-01-14T12:00:40.500Z,30.02
2019-01-14T12:01:40.528Z,28.74
2019-01-14T12:02:40.485Z,30.04
2019-01-14T12:03:40.476Z,28.96
2019-01-14T12:04:40.484Z,28.76
2019-01-14T12:05:40.463Z,29.14
2019-01-14T12:06:40.443Z,29.44
2019-01-14T12:07:40.426Z,29.54
2019-01-14T12:08:40.414Z,29.44
2019-01-14T12:09:40.404Z,29.55
2019-01-14T12:10:40.395Z,30.25
2019-01-14T12:11:40.387Z,30.25
2019-01-14T12:12:40.374Z,29.16
2019-01-14T12:13:40.371Z,29.35
2019-01-14T12:14:40.364Z,29.67
2019-01-14T12:15:40.389Z,29.37
2019-01-14T12:16:40.329Z,29.75
2019-01-14T12:17:40.320Z,29.65
2019-01-14T12:18:40.312Z,30.15
2019-01-14T12:19:40.296Z,30.35
2019-01-14T12:20:40.292Z,29.84
2019-01-14T12:21:40.302Z,29.94
2019-01-14T12:22:40.271Z,29.54
2019-01-14T12:23:40.308Z,28.93
2019-01-14T12:24:40.551Z,29.82
2019-01-14T12:25:40.275Z,30.02
2019-01-14T12:26:40.225Z,30.11
2019-01-14T12:27:40.234Z,29.91
2019-01-14T12:28:40.225Z,28.62
2019-01-14T12:29:40.196Z,30.00
2019-01-14T12:30:41.722Z,30.02
2019-01-14T12:31:40.195Z,29.33
2019-01-14T12:32:40.336Z,29.81
2019-01-14T12:33:40.153Z,28.72
2019-01-14T12:34:40.147Z,28.33
2019-01-14T12:35:40.147Z,29.13
2019-01-14T12:36:40.121Z,29.74
2019-01-14T12:37:40.125Z,29.34
2019-01-14T12:38:40.099Z,29.04
2019-01-14T12:39:40.157Z,29.35
2019-01-14T12:40:40.086Z,29.35
2019-01-14T12:41:40.068Z,29.47
2019-01-14T12:42:40.061Z,30.56
2019-01-14T12:43:40.068Z,30.36
2019-01-14T12:44:40.039Z,29.16
2019-01-14T12:45:40.062Z,29.16
2019-01-14T12:46:40.050Z,29.85
2019-01-14T12:47:40.205Z,29.44
2019-01-14T12:48:40.046Z,29.05
2019-01-14T12:49:40.014Z,29.55
2019-01-14T12:50:39.978Z,29.55
2019-01-14T12:51:40.919Z,29.85
2019-01-14T12:52:40.013Z,29.75